Tourist.f.b.terzo — IQAQ — position and weather

sailwx.info

Track history (hours):
 
Tides and Currents Weather Stations Pressure Air Temp Water Temp Dewpoint Dewpoint Depression Visibility Wind Speed Wind Dir Waves Ship Positions

Tourist.f.b.terzo

Last reported at 2014-Jul-24 05:34 UTC. Time now 2014-Jul-24 06:24 UTC.
Position N 40°46' E 013°57'.

Length 53 m; draft 1.8 m.

Type: Ship. MMSI: 247048900.

Date/timePositionNaut miles runAvg speedWind from/ knotsBaromVisibWave heightAir tempDewpointWater temp
2014-Jul-24 05:34N 40°46' E 013°57'3 2.7
2014-Jul-24 04:34N 40°47' E 014°01'5 5.5
2014-Jul-24 03:34N 40°49' E 014°07'7 6.6
2014-Jul-24 02:34N 40°46' E 013°59'2 1.6
2014-Jul-24 01:33N 40°46' E 013°57'7 6.9
2014-Jul-24 00:33N 40°48' E 014°06'1 1.2
2014-Jul-23 23:34N 40°47' E 014°06'9 8.5
2014-Jul-23 22:33N 40°45' E 013°55'0 0.2
2014-Jul-23 21:33N 40°45' E 013°54'0 0.0
2014-Jul-23 20:33N 40°45' E 013°54'0 0.0
2014-Jul-23 14:17N 40°45' E 013°54'0 0.0
2014-Jul-23 11:34N 40°45' E 013°54'0 0.0
2014-Jul-23 10:33N 40°45' E 013°54'0 0.0
2014-Jul-23 09:33N 40°45' E 013°54'5 4.9
2014-Jul-23 08:33N 40°46' E 014°01'6 5.7
2014-Jul-23 07:33N 40°49' E 014°07'4 4.3
2014-Jul-23 06:33N 40°46' E 014°03'7 6.6
2014-Jul-23 05:33N 40°45' E 013°55'6 6.3
2014-Jul-23 04:33N 40°47' E 014°03'3 3.1
2014-Jul-23 03:33N 40°48' E 014°06'8 7.6
2014-Jul-23 02:33N 40°46' E 013°57'2 2.3
2014-Jul-23 01:33N 40°46' E 013°60'6 5.8
2014-Jul-23 00:33N 40°49' E 014°06'4 3.5
2014-Jul-22 23:33N 40°46' E 014°03'7 6.8
2014-Jul-22 22:33N 40°45' E 013°54'0 0.0
2014-Jul-22 21:33N 40°45' E 013°54'0 0.0
2014-Jul-22 20:33N 40°45' E 013°54'0 0.0
2014-Jul-22 19:33N 40°45' E 013°54'0 0.0
2014-Jul-22 18:33N 40°45' E 013°54'0 0.0
2014-Jul-22 15:07N 40°45' E 013°54'0 0.0
2014-Jul-22 11:33N 40°45' E 013°54'0 0.0
2014-Jul-22 10:34N 40°45' E 013°54'2 2.0
2014-Jul-22 09:33N 40°46' E 013°57'8 7.6
2014-Jul-22 08:33N 40°49' E 014°06'0 0.3
2014-Jul-22 07:33N 40°48' E 014°06'6 6.0
2014-Jul-22 06:33N 40°46' E 013°59'3 3.5
2014-Jul-22 05:34N 40°45' E 013°54'7 7.3
2014-Jul-22 04:33N 40°47' E 014°04'3 3.1
2014-Jul-22 03:33N 40°49' E 014°06'8 7.5
2014-Jul-22 02:33N 40°46' E 013°57'0 0.0
2014-Jul-22 01:34N 40°46' E 013°57'7 6.6
2014-Jul-22 00:33N 40°47' E 014°06'0 0.3
2014-Jul-21 23:33N 40°47' E 014°06'8 8.3
2014-Jul-21 22:33N 40°45' E 013°55'0 0.3
2014-Jul-21 21:33N 40°45' E 013°54'0 0.0
2014-Jul-21 20:33N 40°45' E 013°54'0 0.0
2014-Jul-21 20:18N 40°45' E 013°54'0 0.0
2014-Jul-21 18:31N 40°45' E 013°54'0 0.0
2014-Jul-21 09:34N 40°45' E 013°55'6 5.8
2014-Jul-21 08:33N 40°46' E 014°02'5 4.8
2014-Jul-21 07:33N 40°49' E 014°07'4 4.0
2014-Jul-21 06:34N 40°46' E 014°04'7 7.3
2014-Jul-21 05:33N 40°45' E 013°54'5 4.9
2014-Jul-21 04:33N 40°46' E 014°01'6 5.6
2014-Jul-21 03:34N 40°49' E 014°07'7 6.6
2014-Jul-21 02:34N 40°46' E 013°59'2 1.7
2014-Jul-21 01:34N 40°46' E 013°57'7 6.6
2014-Jul-21 00:34N 40°47' E 014°06'0 0.1
2014-Jul-20 23:34N 40°47' E 014°06'8 8.3
2014-Jul-20 22:33N 40°45' E 013°55'0 0.0
2014-Jul-19 10:27N 40°45' E 013°54'0 0.0
2014-Jul-19 09:33N 40°45' E 013°54'0 0.0
2014-Jul-19 08:33N 40°45' E 013°54'8 7.9
2014-Jul-19 07:34N 40°46' E 014°05'1 1.3
2014-Jul-19 06:33N 40°47' E 014°06'9 8.7
2014-Jul-19 05:34N 40°45' E 013°55'7 6.8
2014-Jul-19 04:34N 40°47' E 014°04'3 2.8
2014-Jul-19 03:33N 40°48' E 014°06'6 6.1
2014-Jul-19 02:34N 40°46' E 013°59'1 1.4
2014-Jul-19 01:33N 40°46' E 013°57'7 7.0
2014-Jul-19 00:33N 40°47' E 014°06'1 1.4
2014-Jul-18 23:33N 40°46' E 014°05'8 7.9
2014-Jul-18 22:34N 40°45' E 013°54'0 0.0
2014-Jul-18 21:33N 40°45' E 013°54'0 0.0
2014-Jul-18 20:33N 40°45' E 013°54'0 0.0
2014-Jul-18 19:33N 40°45' E 013°54'0 0.0
2014-Jul-18 13:18N 40°45' E 013°54'0 0.0
2014-Jul-18 12:33N 40°45' E 013°54'0 0.0
2014-Jul-18 11:33N 40°45' E 013°54'0 0.0
2014-Jul-18 10:33N 40°45' E 013°54'0 0.0
2014-Jul-18 09:33N 40°45' E 013°54'6 5.7
2014-Jul-18 08:33N 40°47' E 014°02'5 4.5
2014-Jul-18 07:33N 40°49' E 014°06'7 7.4
2014-Jul-18 06:33N 40°46' E 013°58'1 1.0
2014-Jul-18 05:33N 40°46' E 013°59'6 6.2
2014-Jul-18 04:33N 40°49' E 014°06'0 0.5
2014-Jul-18 03:33N 40°49' E 014°06'6 5.6
2014-Jul-18 02:33N 40°46' E 013°60'2 2.0
2014-Jul-18 01:33N 40°46' E 013°57'7 6.9
2014-Jul-18 00:33N 40°47' E 014°06'2 1.8
2014-Jul-17 23:33N 40°46' E 014°04'7 6.9
2014-Jul-17 22:33N 40°45' E 013°55'0 0.1
2014-Jul-17 19:33N 40°45' E 013°54'0 0.0
2014-Jul-17 18:33N 40°45' E 013°54'0 0.0
2014-Jul-17 17:33N 40°45' E 013°54'0 0.0
2014-Jul-17 16:33N 40°45' E 013°54'0 0.0
2014-Jul-17 15:33N 40°45' E 013°54'0 0.0
2014-Jul-17 14:33N 40°45' E 013°54'0 0.0
2014-Jul-17 13:33N 40°45' E 013°54'0 0.0
2014-Jul-17 12:33N 40°45' E 013°54'0 0.0
2014-Jul-17 11:33N 40°45' E 013°54'0 0.0
2014-Jul-17 10:33N 40°45' E 013°54'0 0.0
2014-Jul-17 09:33N 40°45' E 013°54'5 4.9
2014-Jul-17 08:33N 40°46' E 014°01'6 5.7
2014-Jul-17 07:33N 40°49' E 014°07'3 2.5
2014-Jul-17 06:33N 40°47' E 014°06'6 6.2
2014-Jul-17 05:33N 40°46' E 013°58'2 1.9
2014-Jul-17 04:33N 40°46' E 014°00'6 5.9
2014-Jul-17 03:33N 40°49' E 014°07'7 6.9
2014-Jul-17 02:33N 40°46' E 013°59'2 2.3
2014-Jul-17 01:33N 40°46' E 013°56'8 7.5
2014-Jul-17 00:33N 40°47' E 014°06'1 1.1
2014-Jul-16 23:34N 40°46' E 014°04'8 7.7
2014-Jul-16 22:33N 40°45' E 013°54'0 0.0
2014-Jul-16 15:05N 40°45' E 013°54'0 0.0
2014-Jul-16 14:33N 40°45' E 013°54'0 0.0
2014-Jul-16 13:33N 40°45' E 013°54'2 1.9
2014-Jul-16 12:33N 40°46' E 013°57'7 7.0
2014-Jul-16 11:33N 40°47' E 014°06'2 1.9
2014-Jul-16 10:33N 40°49' E 014°06'6 5.6
2014-Jul-16 09:33N 40°46' E 013°60'1 1.0
2014-Jul-16 08:33N 40°46' E 013°59'7 7.2
2014-Jul-16 07:33N 40°49' E 014°07'4 3.8
2014-Jul-16 06:33N 40°46' E 014°04'7 7.3
2014-Jul-16 05:33N 40°45' E 013°54'7 7.0
2014-Jul-16 04:33N 40°47' E 014°04'2 2.4
2014-Jul-16 03:33N 40°48' E 014°06'8 8.3
2014-Jul-16 02:33N 40°46' E 013°56'2 2.4
2014-Jul-16 01:33N 40°46' E 013°59'6 6.1
2014-Jul-16 00:33N 40°48' E 014°06'2 1.6
2014-Jul-15 23:33N 40°47' E 014°06'8 8.3
2014-Jul-15 22:33N 40°45' E 013°55'1 0.5
2014-Jul-15 21:33N 40°45' E 013°54'0 0.0
2014-Jul-15 17:33N 40°45' E 013°54'0 0.0
2014-Jul-15 16:34N 40°45' E 013°54'0 0.0
2014-Jul-15 15:33N 40°45' E 013°54'0 0.0
2014-Jul-15 10:33N 40°45' E 013°54'0 0.0
2014-Jul-15 09:34N 40°45' E 013°54'8 8.1
2014-Jul-15 08:33N 40°46' E 014°05'3 3.4
2014-Jul-15 07:33N 40°49' E 014°07'7 6.9
2014-Jul-15 06:33N 40°46' E 013°59'1 0.7
2014-Jul-15 05:33N 40°46' E 013°58'6 5.8
2014-Jul-15 04:33N 40°47' E 014°06'0 0.3
2014-Jul-15 03:33N 40°47' E 014°06'7 6.7
2014-Jul-15 02:34N 40°46' E 013°57'0 0.2
2014-Jul-15 01:33N 40°46' E 013°57'7 6.7
2014-Jul-15 00:33N 40°48' E 014°06'2 1.6
2014-Jul-14 23:33N 40°46' E 014°04'8 7.7
2014-Jul-14 22:33N 40°45' E 013°54'0 0.0
2014-Jul-14 21:34N 40°45' E 013°54'0 0.0
2014-Jul-14 17:33N 40°45' E 013°54'0 0.0
2014-Jul-14 10:33N 40°45' E 013°54'0 0.0
2014-Jul-14 09:33N 40°45' E 013°54'3 2.8
2014-Jul-14 08:33N 40°46' E 013°58'7 7.3
2014-Jul-14 07:33N 40°49' E 014°06'3 3.4
2014-Jul-14 06:34N 40°46' E 014°05'  
Track history (hours):
 
Tides and Currents Weather Stations Pressure Air Temp Water Temp Dewpoint Dewpoint Depression Visibility Wind Speed Wind Dir Waves Ship Positions

Tourist.f.b.terzo

Last reported at 2014-Jul-24 05:34 UTC. Time now 2014-Jul-24 06:24 UTC.
Position N 40°46' E 013°57'.

Length 53 m; draft 1.8 m.

Type: Ship. MMSI: 247048900.

Date/timePositionNaut miles runAvg speedWind from/ knotsBaromVisibWave heightAir tempDewpointWater temp
2014-Jul-24 05:34N 40°46' E 013°57'3 2.7
2014-Jul-24 04:34N 40°47' E 014°01'5 5.5
2014-Jul-24 03:34N 40°49' E 014°07'7 6.6
2014-Jul-24 02:34N 40°46' E 013°59'2 1.6
2014-Jul-24 01:33N 40°46' E 013°57'7 6.9
2014-Jul-24 00:33N 40°48' E 014°06'1 1.2
2014-Jul-23 23:34N 40°47' E 014°06'9 8.5
2014-Jul-23 22:33N 40°45' E 013°55'0 0.2
2014-Jul-23 21:33N 40°45' E 013°54'0 0.0
2014-Jul-23 20:33N 40°45' E 013°54'0 0.0
2014-Jul-23 14:17N 40°45' E 013°54'0 0.0
2014-Jul-23 11:34N 40°45' E 013°54'0 0.0
2014-Jul-23 10:33N 40°45' E 013°54'0 0.0
2014-Jul-23 09:33N 40°45' E 013°54'5 4.9
2014-Jul-23 08:33N 40°46' E 014°01'6 5.7
2014-Jul-23 07:33N 40°49' E 014°07'4 4.3
2014-Jul-23 06:33N 40°46' E 014°03'7 6.6
2014-Jul-23 05:33N 40°45' E 013°55'6 6.3
2014-Jul-23 04:33N 40°47' E 014°03'3 3.1
2014-Jul-23 03:33N 40°48' E 014°06'8 7.6
2014-Jul-23 02:33N 40°46' E 013°57'2 2.3
2014-Jul-23 01:33N 40°46' E 013°60'6 5.8
2014-Jul-23 00:33N 40°49' E 014°06'4 3.5
2014-Jul-22 23:33N 40°46' E 014°03'7 6.8
2014-Jul-22 22:33N 40°45' E 013°54'0 0.0
2014-Jul-22 21:33N 40°45' E 013°54'0 0.0
2014-Jul-22 20:33N 40°45' E 013°54'0 0.0
2014-Jul-22 19:33N 40°45' E 013°54'0 0.0
2014-Jul-22 18:33N 40°45' E 013°54'0 0.0
2014-Jul-22 15:07N 40°45' E 013°54'0 0.0
2014-Jul-22 11:33N 40°45' E 013°54'0 0.0
2014-Jul-22 10:34N 40°45' E 013°54'2 2.0
2014-Jul-22 09:33N 40°46' E 013°57'8 7.6
2014-Jul-22 08:33N 40°49' E 014°06'0 0.3
2014-Jul-22 07:33N 40°48' E 014°06'6 6.0
2014-Jul-22 06:33N 40°46' E 013°59'3 3.5
2014-Jul-22 05:34N 40°45' E 013°54'7 7.3
2014-Jul-22 04:33N 40°47' E 014°04'3 3.1
2014-Jul-22 03:33N 40°49' E 014°06'8 7.5
2014-Jul-22 02:33N 40°46' E 013°57'0 0.0
2014-Jul-22 01:34N 40°46' E 013°57'7 6.6
2014-Jul-22 00:33N 40°47' E 014°06'0 0.3
2014-Jul-21 23:33N 40°47' E 014°06'8 8.3
2014-Jul-21 22:33N 40°45' E 013°55'0 0.3
2014-Jul-21 21:33N 40°45' E 013°54'0 0.0
2014-Jul-21 20:33N 40°45' E 013°54'0 0.0
2014-Jul-21 20:18N 40°45' E 013°54'0 0.0
2014-Jul-21 18:31N 40°45' E 013°54'0 0.0
2014-Jul-21 09:34N 40°45' E 013°55'6 5.8
2014-Jul-21 08:33N 40°46' E 014°02'5 4.8
2014-Jul-21 07:33N 40°49' E 014°07'4 4.0
2014-Jul-21 06:34N 40°46' E 014°04'7 7.3
2014-Jul-21 05:33N 40°45' E 013°54'5 4.9
2014-Jul-21 04:33N 40°46' E 014°01'6 5.6
2014-Jul-21 03:34N 40°49' E 014°07'7 6.6
2014-Jul-21 02:34N 40°46' E 013°59'2 1.7
2014-Jul-21 01:34N 40°46' E 013°57'7 6.6
2014-Jul-21 00:34N 40°47' E 014°06'0 0.1
2014-Jul-20 23:34N 40°47' E 014°06'8 8.3
2014-Jul-20 22:33N 40°45' E 013°55'0 0.0
2014-Jul-19 10:27N 40°45' E 013°54'0 0.0
2014-Jul-19 09:33N 40°45' E 013°54'0 0.0
2014-Jul-19 08:33N 40°45' E 013°54'8 7.9
2014-Jul-19 07:34N 40°46' E 014°05'1 1.3
2014-Jul-19 06:33N 40°47' E 014°06'9 8.7
2014-Jul-19 05:34N 40°45' E 013°55'7 6.8
2014-Jul-19 04:34N 40°47' E 014°04'3 2.8
2014-Jul-19 03:33N 40°48' E 014°06'6 6.1
2014-Jul-19 02:34N 40°46' E 013°59'1 1.4
2014-Jul-19 01:33N 40°46' E 013°57'7 7.0
2014-Jul-19 00:33N 40°47' E 014°06'1 1.4
2014-Jul-18 23:33N 40°46' E 014°05'8 7.9
2014-Jul-18 22:34N 40°45' E 013°54'0 0.0
2014-Jul-18 21:33N 40°45' E 013°54'0 0.0
2014-Jul-18 20:33N 40°45' E 013°54'0 0.0
2014-Jul-18 19:33N 40°45' E 013°54'0 0.0
2014-Jul-18 13:18N 40°45' E 013°54'0 0.0
2014-Jul-18 12:33N 40°45' E 013°54'0 0.0
2014-Jul-18 11:33N 40°45' E 013°54'0 0.0
2014-Jul-18 10:33N 40°45' E 013°54'0 0.0
2014-Jul-18 09:33N 40°45' E 013°54'6 5.7
2014-Jul-18 08:33N 40°47' E 014°02'5 4.5
2014-Jul-18 07:33N 40°49' E 014°06'7 7.4
2014-Jul-18 06:33N 40°46' E 013°58'1 1.0
2014-Jul-18 05:33N 40°46' E 013°59'6 6.2
2014-Jul-18 04:33N 40°49' E 014°06'0 0.5
2014-Jul-18 03:33N 40°49' E 014°06'6 5.6
2014-Jul-18 02:33N 40°46' E 013°60'2 2.0
2014-Jul-18 01:33N 40°46' E 013°57'7 6.9
2014-Jul-18 00:33N 40°47' E 014°06'2 1.8
2014-Jul-17 23:33N 40°46' E 014°04'7 6.9
2014-Jul-17 22:33N 40°45' E 013°55'0 0.1
2014-Jul-17 19:33N 40°45' E 013°54'0 0.0
2014-Jul-17 18:33N 40°45' E 013°54'0 0.0
2014-Jul-17 17:33N 40°45' E 013°54'0 0.0
2014-Jul-17 16:33N 40°45' E 013°54'0 0.0
2014-Jul-17 15:33N 40°45' E 013°54'0 0.0
2014-Jul-17 14:33N 40°45' E 013°54'0 0.0
2014-Jul-17 13:33N 40°45' E 013°54'0 0.0
2014-Jul-17 12:33N 40°45' E 013°54'0 0.0
2014-Jul-17 11:33N 40°45' E 013°54'0 0.0
2014-Jul-17 10:33N 40°45' E 013°54'0 0.0
2014-Jul-17 09:33N 40°45' E 013°54'5 4.9
2014-Jul-17 08:33N 40°46' E 014°01'6 5.7
2014-Jul-17 07:33N 40°49' E 014°07'3 2.5
2014-Jul-17 06:33N 40°47' E 014°06'6 6.2
2014-Jul-17 05:33N 40°46' E 013°58'2 1.9
2014-Jul-17 04:33N 40°46' E 014°00'6 5.9
2014-Jul-17 03:33N 40°49' E 014°07'7 6.9
2014-Jul-17 02:33N 40°46' E 013°59'2 2.3
2014-Jul-17 01:33N 40°46' E 013°56'8 7.5
2014-Jul-17 00:33N 40°47' E 014°06'1 1.1
2014-Jul-16 23:34N 40°46' E 014°04'8 7.7
2014-Jul-16 22:33N 40°45' E 013°54'0 0.0
2014-Jul-16 15:05N 40°45' E 013°54'0 0.0
2014-Jul-16 14:33N 40°45' E 013°54'0 0.0
2014-Jul-16 13:33N 40°45' E 013°54'2 1.9
2014-Jul-16 12:33N 40°46' E 013°57'7 7.0
2014-Jul-16 11:33N 40°47' E 014°06'2 1.9
2014-Jul-16 10:33N 40°49' E 014°06'6 5.6
2014-Jul-16 09:33N 40°46' E 013°60'1 1.0
2014-Jul-16 08:33N 40°46' E 013°59'7 7.2
2014-Jul-16 07:33N 40°49' E 014°07'4 3.8
2014-Jul-16 06:33N 40°46' E 014°04'7 7.3
2014-Jul-16 05:33N 40°45' E 013°54'7 7.0
2014-Jul-16 04:33N 40°47' E 014°04'2 2.4
2014-Jul-16 03:33N 40°48' E 014°06'8 8.3
2014-Jul-16 02:33N 40°46' E 013°56'2 2.4
2014-Jul-16 01:33N 40°46' E 013°59'6 6.1
2014-Jul-16 00:33N 40°48' E 014°06'2 1.6
2014-Jul-15 23:33N 40°47' E 014°06'8 8.3
2014-Jul-15 22:33N 40°45' E 013°55'1 0.5
2014-Jul-15 21:33N 40°45' E 013°54'0 0.0
2014-Jul-15 17:33N 40°45' E 013°54'0 0.0
2014-Jul-15 16:34N 40°45' E 013°54'0 0.0
2014-Jul-15 15:33N 40°45' E 013°54'0 0.0
2014-Jul-15 10:33N 40°45' E 013°54'0 0.0
2014-Jul-15 09:34N 40°45' E 013°54'8 8.1
2014-Jul-15 08:33N 40°46' E 014°05'3 3.4
2014-Jul-15 07:33N 40°49' E 014°07'7 6.9
2014-Jul-15 06:33N 40°46' E 013°59'1 0.7
2014-Jul-15 05:33N 40°46' E 013°58'6 5.8
2014-Jul-15 04:33N 40°47' E 014°06'0 0.3
2014-Jul-15 03:33N 40°47' E 014°06'7 6.7
2014-Jul-15 02:34N 40°46' E 013°57'0 0.2
2014-Jul-15 01:33N 40°46' E 013°57'7 6.7
2014-Jul-15 00:33N 40°48' E 014°06'2 1.6
2014-Jul-14 23:33N 40°46' E 014°04'8 7.7
2014-Jul-14 22:33N 40°45' E 013°54'0 0.0
2014-Jul-14 21:34N 40°45' E 013°54'0 0.0
2014-Jul-14 17:33N 40°45' E 013°54'0 0.0
2014-Jul-14 10:33N 40°45' E 013°54'0 0.0
2014-Jul-14 09:33N 40°45' E 013°54'3 2.8
2014-Jul-14 08:33N 40°46' E 013°58'7 7.3
2014-Jul-14 07:33N 40°49' E 014°06'3 3.4
2014-Jul-14 06:34N 40°46' E 014°05'  

Dump ship's entire track history